Time;durP1;ratioP1;P1;durP2;ratioP2;P2;SDS_P1;SDS_P2;PMS_P1;PMS_P2;Temp;Humidity;BMP_temperature;BMP_pressure;BME280_temperature;BME280_humidity;BME280_pressure;Samples;Min_cycle;Max_cycle;Signal;HPM_P1;HPM_P2
2021/12/24 00:00:55;;;;;;;34.03;14.95;;;5.60;99.90;;;;;;5110649;28;20051;-60
2021/12/24 00:03:21;;;;;;;29.65;15.45;;;5.70;99.90;;;;;;5120513;28;20381;-61
2021/12/24 00:05:47;;;;;;;31.40;15.10;;;5.70;99.90;;;;;;5091303;28;20050;-60
2021/12/24 00:08:13;;;;;;;34.60;15.85;;;5.70;99.90;;;;;;5119052;28;20051;-61
2021/12/24 00:10:39;;;;;;;33.22;15.90;;;5.60;99.90;;;;;;5129726;28;20058;-60
2021/12/24 00:13:10;;;;;;;29.00;14.75;;;5.60;99.90;;;;;;5130689;28;20051;-61
2021/12/24 00:37:12;;;;;;;26.83;13.18;;;5.80;99.90;;;;;;5131116;27;20063;-60
2021/12/24 00:39:49;;;;;;;31.40;13.70;;;5.80;99.90;;;;;;5124960;27;20070;-60
2021/12/24 00:42:15;;;;;;;26.25;12.60;;;5.80;99.90;;;;;;5133664;27;20128;-60
2021/12/24 00:44:41;;;;;;;28.67;13.20;;;5.80;99.90;;;;;;5134434;27;20487;-60
2021/12/24 00:47:07;;;;;;;26.52;11.95;;;5.80;99.90;;;;;;5134338;27;20488;-60
2021/12/24 00:49:32;;;;;;;25.08;12.55;;;5.80;99.90;;;;;;5106038;27;20080;-60
2021/12/24 00:52:18;;;;;;;25.90;12.50;;;5.90;99.90;;;;;;5098512;27;20076;-60
2021/12/24 00:57:31;;;;;;;26.13;12.93;;;5.90;99.90;;;;;;5133770;27;20128;-61
2021/12/24 00:59:57;;;;;;;23.42;12.25;;;5.90;99.90;;;;;;5122230;27;20114;-60
2021/12/24 01:02:23;;;;;;;21.60;11.38;;;5.90;99.90;;;;;;5133328;27;20054;-60
2021/12/24 01:04:49;;;;;;;19.88;11.32;;;5.80;99.90;;;;;;5115701;27;20567;-60
2021/12/24 01:07:15;;;;;;;24.65;12.07;;;5.90;99.90;;;;;;5115411;27;20111;-63
2021/12/24 01:09:40;;;;;;;25.88;12.02;;;5.80;99.90;;;;;;5131877;27;20043;-60
2021/12/24 01:12:07;;;;;;;21.17;11.63;;;5.90;99.90;;;;;;5114955;27;20039;-60
2021/12/24 01:14:33;;;;;;;28.90;11.48;;;5.80;99.90;;;;;;5133441;27;20055;-60
2021/12/24 01:17:12;;;;;;;20.20;10.75;;;5.80;99.90;;;;;;5150181;27;20039;-60
2021/12/24 01:19:41;;;;;;;23.50;11.35;;;5.80;99.90;;;;;;5115006;27;20043;-60
2021/12/24 01:25:23;;;;;;;;;;;5.90;99.90;;;;;;5133884;27;20119;-60
2021/12/24 01:43:25;;;;;;;;;;;6.00;99.90;;;;;;5130106;27;20372;-60
2021/12/24 01:45:52;;;;;;;;;;;6.00;99.90;;;;;;5133825;27;19933;-61
2021/12/24 01:48:18;;;;;;;;;;;6.00;99.90;;;;;;5133709;27;19938;-61
2021/12/24 01:50:46;;;;;;;;;;;6.00;99.90;;;;;;5132289;27;19923;-61
2021/12/24 01:53:13;;;;;;;;;;;6.00;99.90;;;;;;5124643;27;20289;-60
2021/12/24 01:55:39;;;;;;;;;;;6.10;99.90;;;;;;5114706;27;19920;-60
2021/12/24 01:58:05;;;;;;;;;;;6.10;99.90;;;;;;5133510;27;19980;-60
2021/12/24 02:00:33;;;;;;;;;;;6.10;99.90;;;;;;5132854;27;20333;-60
2021/12/24 02:02:58;;;;;;;;;;;6.10;99.90;;;;;;5117527;27;19925;-60
2021/12/24 02:05:25;;;;;;;;;;;6.20;99.90;;;;;;5132932;27;19924;-60
2021/12/24 02:07:51;;;;;;;;;;;6.20;99.90;;;;;;5114915;27;19919;-60
2021/12/24 02:10:18;;;;;;;;;;;6.20;99.90;;;;;;5133252;27;19923;-61
2021/12/24 02:12:44;;;;;;;;;;;6.20;99.90;;;;;;5127003;27;20118;-61
2021/12/24 02:15:19;;;;;;;;;;;6.20;99.90;;;;;;5132904;27;19919;-61
2021/12/24 02:18:15;;;;;;;20.60;7.38;;;6.20;99.90;;;;;;5097182;27;20236;-60
2021/12/24 02:28:53;;;;;;;;;;;6.30;99.90;;;;;;5111453;28;20284;-60
2021/12/24 02:31:21;;;;;;;;;;;6.40;99.90;;;;;;5113522;27;19919;-61
2021/12/24 02:33:47;;;;;;;;;;;6.40;99.90;;;;;;5113156;27;19924;-60
2021/12/24 02:36:13;;;;;;;;;;;6.40;99.90;;;;;;5130823;27;19923;-61
2021/12/24 02:38:38;;;;;;;;;;;6.40;99.90;;;;;;5132381;27;20425;-61
2021/12/24 02:41:05;;;;;;;;;;;6.50;99.90;;;;;;5132584;27;19941;-60
2021/12/24 02:43:31;;;;;;;;;;;6.50;99.90;;;;;;5130141;27;19923;-60
2021/12/24 02:46:05;;;;;;;;;;;6.50;99.90;;;;;;5131856;27;19919;-61
2021/12/24 02:56:40;;;;;;;;;;;6.60;99.90;;;;;;5097721;28;20360;-60
2021/12/24 02:59:10;;;;;;;;;;;6.70;99.90;;;;;;5111811;28;19927;-61
2021/12/24 03:01:37;;;;;;;;;;;6.70;99.90;;;;;;5122746;27;20380;-60
2021/12/24 03:04:04;;;;;;;;;;;6.70;99.90;;;;;;5099799;28;19972;-60
2021/12/24 03:06:32;;;;;;;;;;;6.70;99.90;;;;;;5112848;27;19946;-60
2021/12/24 03:08:57;;;;;;;;;;;6.70;99.90;;;;;;5093544;28;19988;-60
2021/12/24 03:11:24;;;;;;;;;;;6.80;99.90;;;;;;5111749;28;19923;-61
2021/12/24 03:13:50;;;;;;;;;;;6.80;99.90;;;;;;5130633;27;19942;-60
2021/12/24 03:16:15;;;;;;;;;;;6.70;99.90;;;;;;5112656;27;19924;-60
2021/12/24 03:18:42;;;;;;;;;;;6.80;99.90;;;;;;5111117;28;20014;-60
2021/12/24 03:21:19;;;;;;;;;;;6.80;99.90;;;;;;5111528;28;19981;-61
2021/12/24 03:24:33;;;;;;;;;;;6.80;99.90;;;;;;5129895;27;19919;-61
2021/12/24 03:26:38;;;;;;;;;;;6.80;99.90;;;;;;5129966;28;19926;-61
2021/12/24 03:29:05;;;;;;;;;;;6.80;99.90;;;;;;5131988;28;19931;-61
2021/12/24 03:31:30;;;;;;;;;;;6.90;99.90;;;;;;5131906;28;19920;-60
2021/12/24 03:33:56;;;;;;;;;;;6.80;99.90;;;;;;5128543;28;20044;-60
2021/12/24 03:36:23;;;;;;;;;;;6.90;99.90;;;;;;5112379;28;19927;-60
2021/12/24 03:38:48;;;;;;;;;;;6.90;99.90;;;;;;5111250;28;19962;-60
2021/12/24 03:41:14;;;;;;;;;;;6.90;99.90;;;;;;5111442;28;19973;-61
2021/12/24 03:43:40;;;;;;;;;;;6.90;99.90;;;;;;5110988;28;19920;-60
2021/12/24 03:46:09;;;;;;;;;;;7.00;99.90;;;;;;5113666;28;19945;-60
2021/12/24 03:48:49;;;;;;;;;;;7.00;99.90;;;;;;5112284;28;19926;-60
2021/12/24 03:56:25;;;;;;;;;;;7.10;99.90;;;;;;5114782;27;19926;-61
2021/12/24 03:58:50;;;;;;;;;;;7.10;99.90;;;;;;5133196;27;19924;-60
2021/12/24 04:01:16;;;;;;;;;;;7.10;99.90;;;;;;5135507;27;19930;-61
2021/12/24 04:03:41;;;;;;;;;;;7.10;99.90;;;;;;5135375;27;19930;-61
2021/12/24 04:06:07;;;;;;;;;;;7.10;99.90;;;;;;5135367;27;20342;-60
2021/12/24 04:08:33;;;;;;;;;;;7.20;99.90;;;;;;5135709;27;19919;-61
2021/12/24 04:10:59;;;;;;;;;;;7.20;99.90;;;;;;5127014;27;19942;-61
2021/12/24 04:13:24;;;;;;;;;;;7.20;99.90;;;;;;5115210;28;19981;-61
2021/12/24 04:15:50;;;;;;;;;;;7.20;99.90;;;;;;5107270;27;20338;-61
2021/12/24 04:18:40;;;;;;;;;;;7.30;99.90;;;;;;5135209;27;19970;-61
2021/12/24 04:26:31;;;;;;;;;;;7.40;99.90;;;;;;5128788;27;19950;-61
2021/12/24 04:28:58;;;;;;;;;;;7.40;99.90;;;;;;5134782;27;20368;-60
2021/12/24 04:31:30;;;;;;;;;;;7.50;99.90;;;;;;5135247;27;20284;-61
2021/12/24 04:33:59;;;;;;;;;;;7.50;99.90;;;;;;5134806;27;19930;-61
2021/12/24 05:03:09;;;;;;;;;;;7.80;99.90;;;;;;5113704;28;20016;-60
2021/12/24 05:06:05;;;;;;;;;;;7.90;99.90;;;;;;5124399;27;19925;-60
2021/12/24 05:08:25;;;;;;;;;;;7.90;99.90;;;;;;5132621;27;19919;-60
2021/12/24 05:10:51;;;;;;;;;;;7.90;99.90;;;;;;5134025;27;20347;-61
2021/12/24 05:13:18;;;;;;;;;;;7.90;99.90;;;;;;5133383;27;20416;-60
2021/12/24 05:15:47;;;;;;;;;;;7.90;99.90;;;;;;5111972;27;20376;-61
2021/12/24 05:18:31;;;;;;;;;;;7.80;99.90;;;;;;5115011;27;19956;-60
2021/12/24 05:23:40;;;;;;;;;;;7.90;99.90;;;;;;5134343;27;19923;-60
2021/12/24 05:26:06;;;;;;;;;;;7.90;99.90;;;;;;5131129;27;19923;-60
2021/12/24 05:28:32;;;;;;;;;;;7.90;99.90;;;;;;5114591;27;19924;-60
2021/12/24 05:30:58;;;;;;;;;;;7.90;99.90;;;;;;5133681;27;20016;-60
2021/12/24 05:33:23;;;;;;;;;;;7.90;99.90;;;;;;5133980;27;20447;-60
2021/12/24 05:35:49;;;;;;;;;;;7.90;99.90;;;;;;5132566;27;19923;-60
2021/12/24 05:38:15;;;;;;;;;;;8.00;99.90;;;;;;5113844;27;20402;-60
2021/12/24 05:40:41;;;;;;;;;;;8.00;99.90;;;;;;5128932;27;20056;-61
2021/12/24 05:43:07;;;;;;;;;;;8.00;99.90;;;;;;5133161;27;20396;-62
2021/12/24 05:45:36;;;;;;;;;;;8.00;99.90;;;;;;5131981;27;20011;-61
2021/12/24 05:48:02;;;;;;;;;;;8.00;99.90;;;;;;5114734;27;20356;-61
2021/12/24 05:50:28;;;;;;;;;;;8.00;99.90;;;;;;5132190;27;20388;-61
2021/12/24 05:52:54;;;;;;;;;;;8.00;99.90;;;;;;5118662;27;19926;-61
2021/12/24 05:55:20;;;;;;;;;;;8.00;99.90;;;;;;5133607;27;19927;-62
2021/12/24 05:57:45;;;;;;;;;;;8.00;99.90;;;;;;5115092;27;20372;-61
2021/12/24 06:00:12;;;;;;;;;;;8.00;99.90;;;;;;5129945;27;19936;-62
2021/12/24 06:02:37;;;;;;;;;;;8.00;99.90;;;;;;5117447;27;19963;-62
2021/12/24 06:05:03;;;;;;;;;;;8.10;99.90;;;;;;5099284;27;19954;-62
2021/12/24 06:07:29;;;;;;;;;;;8.00;99.90;;;;;;5115299;27;20006;-61
2021/12/24 06:10:01;;;;;;;;;;;8.10;99.90;;;;;;5114454;27;20414;-62
2021/12/24 06:12:26;;;;;;;;;;;8.10;99.90;;;;;;5132898;27;20026;-60
2021/12/24 06:14:55;;;;;;;;;;;8.10;99.90;;;;;;5133008;27;19923;-61
2021/12/24 06:17:22;;;;;;;;;;;8.10;99.90;;;;;;5132168;27;19989;-61
2021/12/24 06:19:48;;;;;;;;;;;8.00;99.90;;;;;;5130593;27;19982;-62
2021/12/24 06:22:14;;;;;;;;;;;8.00;99.90;;;;;;5111117;27;19963;-62
2021/12/24 06:24:42;;;;;;;;;;;8.00;99.90;;;;;;5128752;27;20018;-63
2021/12/24 06:27:11;;;;;;;;;;;8.10;99.90;;;;;;5107241;28;20390;-62
2021/12/24 06:29:37;;;;;;;;;;;8.00;99.90;;;;;;5130863;27;19919;-63
2021/12/24 06:32:03;;;;;;;;;;;8.00;99.90;;;;;;5113616;27;20284;-61
2021/12/24 06:34:34;;;;;;;;;;;8.00;99.90;;;;;;5127070;27;19926;-62
2021/12/24 06:37:00;;;;;;;;;;;8.00;99.90;;;;;;5113570;27;19923;-60
2021/12/24 06:39:26;;;;;;;;;;;8.00;99.90;;;;;;5132488;27;19923;-62
2021/12/24 06:41:53;;;;;;;;;;;8.00;99.90;;;;;;5132694;27;19976;-63
2021/12/24 06:44:20;;;;;;;;;;;8.00;99.90;;;;;;5113173;27;20334;-63
2021/12/24 06:46:46;;;;;;;;;;;8.00;99.90;;;;;;5124981;27;20018;-62
2021/12/24 06:49:12;;;;;;;;;;;8.00;99.90;;;;;;5119737;27;20010;-66
2021/12/24 06:51:38;;;;;;;;;;;8.00;99.90;;;;;;5109936;27;19948;-63
2021/12/24 06:54:04;;;;;;;;;;;8.00;99.90;;;;;;5132527;27;19967;-66
2021/12/24 06:56:29;;;;;;;;;;;8.00;99.90;;;;;;5097141;27;19974;-63
2021/12/24 06:58:58;;;;;;;;;;;8.00;99.90;;;;;;5113401;27;19986;-62
2021/12/24 07:01:24;;;;;;;;;;;8.00;99.90;;;;;;5131667;27;20392;-62
2021/12/24 07:03:49;;;;;;;;;;;7.90;99.90;;;;;;5131998;27;19930;-62
2021/12/24 07:06:15;;;;;;;;;;;8.00;99.90;;;;;;5131610;27;19980;-63
2021/12/24 07:08:41;;;;;;;;;;;7.90;99.90;;;;;;5120635;27;19970;-63
2021/12/24 07:11:06;;;;;;;;;;;7.90;99.90;;;;;;5110400;28;19941;-68
2021/12/24 07:13:32;;;;;;;;;;;7.90;99.90;;;;;;5113090;27;19925;-62
2021/12/24 07:15:58;;;;;;;;;;;8.00;99.90;;;;;;5131558;27;19976;-63
2021/12/24 07:18:24;;;;;;;;;;;7.90;99.90;;;;;;5125282;27;20010;-62
2021/12/24 07:20:49;;;;;;;;;;;7.90;99.90;;;;;;5127692;27;20014;-65
2021/12/24 07:23:15;;;;;;;;;;;7.90;99.90;;;;;;5125477;28;19920;-65
2021/12/24 07:25:40;;;;;;;;;;;7.90;99.90;;;;;;5113182;28;19919;-62
2021/12/24 07:28:06;;;;;;;;;;;7.90;99.90;;;;;;5131295;27;19978;-64
2021/12/24 07:30:32;;;;;;;;;;;7.90;99.90;;;;;;5130357;27;19934;-64
2021/12/24 07:32:58;;;;;;;;;;;7.90;99.90;;;;;;5132757;27;19959;-65
2021/12/24 07:35:24;;;;;;;;;;;7.80;99.90;;;;;;5117770;27;20351;-66
2021/12/24 07:37:50;;;;;;;;;;;7.70;99.90;;;;;;5135941;27;19999;-66
2021/12/24 07:40:16;;;;;;;;;;;7.70;99.90;;;;;;5117315;27;19977;-66
2021/12/24 07:42:43;;;;;;;;;;;7.60;99.90;;;;;;5114152;27;20364;-66
2021/12/24 07:45:09;;;;;;;;;;;7.60;99.90;;;;;;5115309;28;20364;-66
2021/12/24 07:47:39;;;;;;;;;;;7.50;99.90;;;;;;5107130;27;19930;-65
2021/12/24 07:52:55;;;;;;;;;;;7.50;99.90;;;;;;5117590;27;19931;-66
2021/12/24 07:55:20;;;;;;;;;;;7.50;99.90;;;;;;5132594;27;19924;-67
2021/12/24 07:57:49;;;;;;;;;;;7.50;99.90;;;;;;5105679;27;19919;-67
2021/12/24 08:00:15;;;;;;;;;;;7.50;99.90;;;;;;5135227;27;20386;-66
2021/12/24 08:02:41;;;;;;;;;;;7.50;99.90;;;;;;5100453;27;19923;-66
2021/12/24 08:05:07;;;;;;;;;;;7.60;99.90;;;;;;5100619;27;19926;-66
2021/12/24 08:07:33;;;;;;;;;;;7.60;99.90;;;;;;5116936;27;20106;-66
2021/12/24 08:09:58;;;;;;;;;;;7.60;99.90;;;;;;5116647;27;19947;-65
2021/12/24 08:12:24;;;;;;;;;;;7.60;99.90;;;;;;5112640;27;19970;-66
2021/12/24 08:14:50;;;;;;;;;;;7.60;99.90;;;;;;5117178;27;20267;-66
2021/12/24 08:17:16;;;;;;;;;;;7.70;99.90;;;;;;5082375;27;20269;-66
2021/12/24 08:19:42;;;;;;;;;;;7.70;99.90;;;;;;5116812;27;19928;-65
2021/12/24 08:22:07;;;;;;;;;;;7.70;99.90;;;;;;5116104;27;19920;-66
2021/12/24 08:24:33;;;;;;;;;;;7.70;99.90;;;;;;5098795;27;19923;-65
2021/12/24 08:26:58;;;;;;;;;;;7.70;99.90;;;;;;5133652;27;19923;-65
2021/12/24 08:29:24;;;;;;;;;;;7.70;99.90;;;;;;5134348;27;20027;-64
2021/12/24 08:31:51;;;;;;;;;;;7.70;99.90;;;;;;5098956;27;20288;-64
2021/12/24 08:34:18;;;;;;;;;;;7.70;99.90;;;;;;5116473;27;20362;-67
2021/12/24 08:36:44;;;;;;;;;;;7.70;99.90;;;;;;5133699;27;19926;-66
2021/12/24 08:39:09;;;;;;;;;;;7.70;99.90;;;;;;5129956;27;20296;-64
2021/12/24 08:41:35;;;;;;;;;;;7.70;99.90;;;;;;5088859;28;20221;-64
2021/12/24 08:44:01;;;;;;;;;;;7.70;99.90;;;;;;5092976;28;19923;-64
2021/12/24 08:46:27;;;;;;;;;;;7.70;99.90;;;;;;5075523;28;19924;-65
2021/12/24 08:48:52;;;;;;;;;;;7.70;99.90;;;;;;5092605;28;19931;-65
2021/12/24 08:51:18;;;;;;;;;;;7.80;99.90;;;;;;5097437;28;19959;-64
2021/12/24 08:53:44;;;;;;;;;;;7.80;99.90;;;;;;5089752;28;19920;-64
2021/12/24 08:56:09;;;;;;;;;;;7.80;99.90;;;;;;5092282;28;19924;-63
2021/12/24 08:58:37;;;;;;;;;;;7.80;99.90;;;;;;5074821;28;19931;-63
2021/12/24 09:01:03;;;;;;;;;;;7.80;99.90;;;;;;5075158;28;19923;-63
2021/12/24 09:03:29;;;;;;;;;;;7.80;99.90;;;;;;5091705;28;19920;-64
2021/12/24 09:05:55;;;;;;;;;;;7.70;99.90;;;;;;5091640;28;19927;-66
2021/12/24 09:08:20;;;;;;;;;;;7.80;99.90;;;;;;5123922;27;20378;-65
2021/12/24 09:10:46;;;;;;;;;;;7.80;99.90;;;;;;5091666;28;19991;-65
2021/12/24 09:13:11;;;;;;;;;;;7.70;99.90;;;;;;5091458;28;19928;-65
2021/12/24 09:15:39;;;;;;;;;;;7.70;99.90;;;;;;5108824;28;19924;-65
2021/12/24 09:18:04;;;;;;;;;;;7.70;99.90;;;;;;5091573;28;19982;-65
2021/12/24 09:20:35;;;;;;;;;;;7.80;99.90;;;;;;5108231;28;19924;-66
2021/12/24 09:23:02;;;;;;;;;;;7.70;99.90;;;;;;5122437;27;19924;-65
2021/12/24 09:25:28;;;;;;;;;;;7.40;99.90;;;;;;5092437;28;19997;-66
2021/12/24 09:27:54;;;;;;;;;;;7.20;99.90;;;;;;5109109;28;19920;-65
2021/12/24 09:30:20;;;;;;;;;;;7.00;99.90;;;;;;5091604;28;20027;-65
2021/12/24 09:32:45;;;;;;;;;;;6.90;99.90;;;;;;5091567;28;19916;-64
2021/12/24 09:35:11;;;;;;;;;;;6.70;99.90;;;;;;5108661;28;19928;-65
2021/12/24 09:37:38;;;;;;;;;;;6.60;99.90;;;;;;5090954;28;19920;-65
2021/12/24 09:40:05;;;;;;;;;;;6.50;99.90;;;;;;5091056;28;19969;-66
2021/12/24 09:42:31;;;;;;;;;;;6.50;99.90;;;;;;5073787;28;19927;-65
2021/12/24 09:44:57;;;;;;;;;;;6.40;99.90;;;;;;5087917;28;20007;-65
2021/12/24 09:47:24;;;;;;;;;;;6.40;99.90;;;;;;5091910;28;20125;-67
2021/12/24 09:49:49;;;;;;;;;;;6.40;99.90;;;;;;5102201;28;20038;-63
2021/12/24 09:52:15;;;;;;;;;;;6.40;99.90;;;;;;5110773;28;20010;-64
2021/12/24 09:54:44;;;;;;;;;;;6.50;99.90;;;;;;5088572;28;20274;-63
2021/12/24 09:57:10;;;;;;;;;;;6.40;99.90;;;;;;5078702;28;19920;-64
2021/12/24 09:59:36;;;;;;;;;;;6.50;99.90;;;;;;5089112;28;20023;-66
2021/12/24 10:02:03;;;;;;;;;;;6.50;99.90;;;;;;5091112;28;19928;-64
2021/12/24 10:04:32;;;;;;;;;;;6.40;99.90;;;;;;5090782;28;20357;-66
2021/12/24 10:06:59;;;;;;;;;;;6.40;99.90;;;;;;5089217;28;19927;-65
2021/12/24 10:09:33;;;;;;;;;;;6.40;99.90;;;;;;5090586;28;20301;-66
2021/12/24 10:12:27;;;;;;;;;;;6.40;99.90;;;;;;5091155;28;19943;-66
2021/12/24 10:14:57;;;;;;;;;;;6.40;99.90;;;;;;5085849;28;20397;-66
2021/12/24 10:17:23;;;;;;;;;;;6.40;99.90;;;;;;5091602;28;19934;-65
2021/12/24 10:19:53;;;;;;;;;;;6.40;99.90;;;;;;5087491;28;20346;-66
2021/12/24 10:22:19;;;;;;;;;;;6.40;99.90;;;;;;5091290;28;19927;-65
2021/12/24 10:25:05;;;;;;;;;;;6.60;99.90;;;;;;5116363;27;19924;-64
2021/12/24 10:27:32;;;;;;;;;;;6.60;99.90;;;;;;5085872;28;20006;-66
2021/12/24 10:29:58;;;;;;;;;;;6.60;99.90;;;;;;5112481;27;19924;-65
2021/12/24 10:32:24;;;;;;;;;;;6.50;99.90;;;;;;5082967;28;19928;-67
2021/12/24 10:34:50;;;;;;;;;;;6.40;99.90;;;;;;5083982;28;19924;-66
2021/12/24 10:37:18;;;;;;;;;;;6.40;99.90;;;;;;5106575;27;19969;-67
2021/12/24 10:39:46;;;;;;;;;;;6.40;99.90;;;;;;5074148;27;20365;-65
2021/12/24 10:42:14;;;;;;;;;;;6.30;99.90;;;;;;5113772;27;19938;-64
2021/12/24 10:44:40;;;;;;;;;;;6.30;99.90;;;;;;5112221;27;19942;-64
2021/12/24 10:47:17;;;;;;;;;;;6.20;99.90;;;;;;5113652;27;19923;-64
2021/12/24 10:49:57;;;;;;;;;;;6.10;99.90;;;;;;5110569;28;19931;-64
2021/12/24 10:54:58;;;;;;;;;;;6.00;99.90;;;;;;5093242;28;19924;-65
2021/12/24 10:57:26;;;;;;;;;;;6.00;99.90;;;;;;5095977;28;19926;-65
2021/12/24 10:59:54;;;;;;;;;;;6.00;99.90;;;;;;5101376;28;19932;-65
2021/12/24 11:02:21;;;;;;;;;;;6.00;99.90;;;;;;5111791;28;19966;-64
2021/12/24 11:04:47;;;;;;;;;;;5.90;99.90;;;;;;5093197;28;19919;-64
2021/12/24 11:07:35;;;;;;;;;;;5.90;99.90;;;;;;5111740;28;19924;-65
2021/12/24 11:10:18;;;;;;;;;;;6.00;99.90;;;;;;5111243;27;20250;-65
2021/12/24 11:12:49;;;;;;;;;;;5.90;99.90;;;;;;5093180;28;19920;-64
2021/12/24 11:15:20;;;;;;;;;;;5.90;99.90;;;;;;5111502;28;19974;-64
2021/12/24 11:17:46;;;;;;;;;;;5.90;99.90;;;;;;5126958;27;19972;-65
2021/12/24 11:20:12;;;;;;;;;;;5.90;99.90;;;;;;5116522;27;19927;-64
2021/12/24 11:22:58;;;;;;;;;;;5.80;99.90;;;;;;5134499;27;19930;-64
2021/12/24 11:25:25;;;;;;;;;;;5.80;99.90;;;;;;5132092;27;19923;-64
2021/12/24 11:27:51;;;;;;;;;;;5.80;99.90;;;;;;5113648;28;19965;-64
2021/12/24 11:30:17;;;;;;;;;;;5.80;99.90;;;;;;5113220;28;19923;-65
2021/12/24 11:32:44;;;;;;;;;;;5.80;99.90;;;;;;5131471;28;20014;-65
2021/12/24 11:35:11;;;;;;;;;;;5.80;99.90;;;;;;5111922;28;19965;-64
2021/12/24 11:37:36;;;;;;;;;;;5.80;99.90;;;;;;5113375;28;19984;-65
2021/12/24 11:40:03;;;;;;;;;;;5.80;99.90;;;;;;5111042;28;20330;-64
2021/12/24 11:42:32;;;;;;;;;;;5.90;99.90;;;;;;5111069;28;19927;-64
2021/12/24 11:44:58;;;;;;;;;;;6.00;99.90;;;;;;5131088;28;19930;-64
2021/12/24 11:47:24;;;;;;;;;;;6.10;99.90;;;;;;5110910;28;20425;-69
2021/12/24 11:49:50;;;;;;;;;;;6.20;99.90;;;;;;5132593;27;20055;-63
2021/12/24 11:52:15;;;;;;;;;;;6.20;99.90;;;;;;5130374;28;19931;-64
2021/12/24 11:54:41;;;;;;;;;;;6.20;99.90;;;;;;5139398;27;20014;-64
2021/12/24 11:57:22;;;;;;;;;;;6.20;99.90;;;;;;5128597;28;19930;-65
2021/12/24 11:59:48;;;;;;;;;;;6.30;99.90;;;;;;5124509;28;19966;-64
2021/12/24 12:02:32;;;;;;;;;;;6.30;99.90;;;;;;5132369;27;20481;-64
2021/12/24 12:05:15;;;;;;;;;;;6.30;99.90;;;;;;5142349;27;20306;-65
2021/12/24 12:07:40;;;;;;;;;;;6.30;99.90;;;;;;5119090;28;20403;-65
2021/12/24 12:10:07;;;;;;;;;;;6.30;99.90;;;;;;5112170;28;20296;-64
2021/12/24 12:12:37;;;;;;;;;;;6.30;99.90;;;;;;5131158;28;19931;-68
2021/12/24 12:15:22;;;;;;;;;;;6.40;99.90;;;;;;5131091;27;19931;-64
2021/12/24 12:17:51;;;;;;;;;;;6.40;99.90;;;;;;5125580;27;20334;-64
2021/12/24 12:20:47;;;;;;;;;;;6.40;99.90;;;;;;5130801;27;19923;-61
2021/12/24 12:23:31;;;;;;;;;;;6.40;99.90;;;;;;5108684;27;20393;-63
2021/12/24 12:25:58;;;;;;;;;;;6.50;99.90;;;;;;5133772;27;19919;-64
2021/12/24 12:28:26;;;;;;;;;;;6.50;99.90;;;;;;5114830;27;20241;-63
2021/12/24 12:30:53;;;;;;;;;;;6.50;99.90;;;;;;5115567;27;19923;-63
2021/12/24 12:33:22;;;;;;;;;;;6.50;99.90;;;;;;5099957;27;19923;-63
2021/12/24 12:35:53;;;;;;;;;;;6.60;99.90;;;;;;5116258;27;19923;-63
2021/12/24 12:38:42;;;;;;;;;;;6.60;99.90;;;;;;5115580;27;19930;-63
2021/12/24 12:41:19;;;;;;;;;;;6.60;99.90;;;;;;5114540;27;20003;-63
2021/12/24 12:43:46;;;;;;;;;;;6.70;99.90;;;;;;5124557;27;19940;-63
2021/12/24 12:46:33;;;;;;;;;;;6.70;99.90;;;;;;5133875;27;19934;-63
2021/12/24 12:49:00;;;;;;;;;;;6.70;99.90;;;;;;5095376;28;19930;-63
2021/12/24 12:51:44;;;;;;;;;;;6.80;99.90;;;;;;5112684;27;19923;-62
2021/12/24 12:54:30;;;;;;;;;;;6.80;99.90;;;;;;5133927;27;19958;-64
2021/12/24 12:57:14;;;;;;;;;;;6.80;99.90;;;;;;5133411;27;19931;-62
2021/12/24 12:59:40;;;;;;;;;;;6.80;99.90;;;;;;5123940;27;19930;-64
2021/12/24 13:02:06;;;;;;;;;;;6.80;99.90;;;;;;5131999;27;20039;-62
2021/12/24 13:04:31;;;;;;;;;;;6.80;99.90;;;;;;5133932;27;20021;-61
2021/12/24 13:06:57;;;;;;;;;;;6.80;99.90;;;;;;5133377;27;20052;-62
2021/12/24 13:09:33;;;;;;;;;;;6.80;99.90;;;;;;5131596;27;19935;-62
2021/12/24 13:11:59;;;;;;;;;;;6.80;99.90;;;;;;5107585;27;19962;-63
2021/12/24 13:14:27;;;;;;;;;;;6.70;99.90;;;;;;5131482;27;20019;-62
2021/12/24 13:17:17;;;;;;;;;;;6.70;99.90;;;;;;5130005;27;20349;-62
2021/12/24 13:20:34;;;;;;;;;;;6.70;99.90;;;;;;5100785;27;19923;-64
2021/12/24 13:22:32;;;;;;;;;;;6.70;99.90;;;;;;5110610;27;20402;-63
2021/12/24 13:25:00;;;;;;;;;;;6.70;99.90;;;;;;5130526;27;19920;-65
2021/12/24 13:27:32;;;;;;;;;;;6.70;99.90;;;;;;5109666;27;19957;-64
2021/12/24 13:30:04;;;;;;;;;;;6.60;99.90;;;;;;5100418;27;19928;-63
2021/12/24 13:32:29;;;;;;;;;;;6.60;99.90;;;;;;5130294;27;20280;-63
2021/12/24 13:34:56;;;;;;;;;;;6.60;99.90;;;;;;5131951;27;19991;-63
2021/12/24 13:37:21;;;;;;;;;;;6.60;99.90;;;;;;5131318;27;19979;-62
2021/12/24 13:39:50;;;;;;;;;;;6.60;99.90;;;;;;5131042;27;19919;-63
2021/12/24 13:42:15;;;;;;;;;;;6.70;99.90;;;;;;5104007;28;20003;-64
2021/12/24 13:44:41;;;;;;;;;;;6.70;99.90;;;;;;5109858;28;19946;-60
2021/12/24 13:47:14;;;;;;;;;;;6.60;99.90;;;;;;5095662;28;19927;-61
2021/12/24 13:55:27;;;;;;;;;;;6.60;99.90;;;;;;5101799;28;20340;-61
2021/12/24 13:57:54;;;;;;;;;;;6.60;99.90;;;;;;5098260;28;19949;-62
2021/12/24 14:00:20;;;;;;;;;;;6.60;99.90;;;;;;5123578;27;20346;-60
2021/12/24 14:03:12;;;;;;;;;;;6.60;99.90;;;;;;5098922;28;19928;-62
2021/12/24 14:05:44;;;;;;;;;;;6.60;99.90;;;;;;5108202;28;20296;-61
2021/12/24 14:08:11;;;;;;;;;;;6.60;99.90;;;;;;5110140;28;20018;-61
2021/12/24 14:10:41;;;;;;;;;;;6.60;99.90;;;;;;5109805;28;19923;-61
2021/12/24 14:13:23;;;;;;;;;;;6.60;99.90;;;;;;5099608;28;20011;-61
2021/12/24 14:18:50;;;;;;;;;;;6.60;99.90;;;;;;5107985;28;19969;-63
2021/12/24 14:24:11;;;;;;;;;;;6.50;99.90;;;;;;5108148;28;19957;-63
2021/12/24 14:26:38;;;;;;;;;;;6.50;99.90;;;;;;5108758;28;20305;-62
2021/12/24 14:29:06;;;;;;;;;;;6.40;99.90;;;;;;5117757;27;20027;-61
2021/12/24 14:31:48;;;;;;;;;;;6.40;99.90;;;;;;5109480;28;20286;-64
2021/12/24 14:34:26;;;;;;;;;;;6.40;99.90;;;;;;5098970;28;19936;-62
2021/12/24 14:36:59;;;;;;;;;;;6.40;99.90;;;;;;5089849;28;19934;-63
2021/12/24 14:39:25;;;;;;;;;;;6.30;99.90;;;;;;5102846;28;20034;-65
2021/12/24 14:42:09;;;;;;;;;;;6.30;99.90;;;;;;5120429;27;20041;-64
2021/12/24 14:44:35;;;;;;;;;;;6.40;99.90;;;;;;5128746;27;19924;-62
2021/12/24 14:47:01;;;;;;;;;;;6.30;99.90;;;;;;5112169;27;20500;-62
2021/12/24 14:49:30;;;;;;;;;;;6.30;99.90;;;;;;5128683;27;20006;-64
2021/12/24 14:52:12;;;;;;;;;;;6.30;99.90;;;;;;5129573;27;19923;-62
2021/12/24 14:54:58;;;;;;;;;;;6.30;99.90;;;;;;5128018;27;19926;-64
2021/12/24 14:57:25;;;;;;;;;;;6.40;99.90;;;;;;5111093;27;19979;-63
2021/12/24 14:59:51;;;;;;;;;;;6.30;99.90;;;;;;5110755;27;19980;-63
2021/12/24 15:02:16;;;;;;;;;;;6.30;99.90;;;;;;5111222;27;19923;-63
2021/12/24 15:04:42;;;;;;;;;;;6.30;99.90;;;;;;5128662;27;20337;-65
2021/12/24 15:07:09;;;;;;;;;;;6.30;99.90;;;;;;5114355;27;19927;-62
2021/12/24 15:09:35;;;;;;;;;;;6.30;99.90;;;;;;5129429;27;19923;-62
2021/12/24 15:12:14;;;;;;;;;;;6.30;99.90;;;;;;5130148;27;20018;-62
2021/12/24 15:14:41;;;;;;;;;;;6.30;99.90;;;;;;5130046;27;20341;-61
2021/12/24 15:17:06;;;;;;;;;;;6.20;99.90;;;;;;5111322;27;20007;-62
2021/12/24 15:19:32;;;;;;;;;;;6.20;99.90;;;;;;5129146;27;20008;-62
2021/12/24 15:21:57;;;;;;;;;;;6.00;99.90;;;;;;5129733;27;20015;-63
2021/12/24 15:24:23;;;;;;;;;;;5.90;99.90;;;;;;5095354;28;19960;-61
2021/12/24 15:26:49;;;;;;;;;;;5.70;99.90;;;;;;5110314;27;19923;-61
2021/12/24 15:29:14;;;;;;;;;;;5.60;99.90;;;;;;5073807;28;20323;-63
2021/12/24 15:31:41;;;;;;;;;;;5.50;99.90;;;;;;5099635;28;20033;-61
2021/12/24 15:34:07;;;;;;;;;;;5.70;99.90;;;;;;5128765;27;20011;-61
2021/12/24 15:36:33;;;;;;;;;;;5.30;99.90;;;;;;5079283;28;19923;-62
2021/12/24 15:39:00;;;;;;;;;;;5.30;99.90;;;;;;5123266;27;20403;-62
2021/12/24 15:41:25;;;;;;;;;;;5.30;99.90;;;;;;5096235;28;19923;-62
2021/12/24 15:43:53;;;;;;;;;;;5.20;99.90;;;;;;5110031;28;19934;-64
2021/12/24 15:46:19;;;;;;;;;;;5.20;99.90;;;;;;5097171;28;20007;-62
2021/12/24 15:48:46;;;;;;;;;;;5.20;99.90;;;;;;5108977;27;19926;-66
2021/12/24 15:51:11;;;;;;;;;;;5.10;99.90;;;;;;5097420;28;20295;-61
2021/12/24 15:53:37;;;;;;;;;;;5.00;99.90;;;;;;5113806;27;19923;-62
2021/12/24 15:56:05;;;;;;;;;;;5.00;99.90;;;;;;5121790;27;19976;-61
2021/12/24 15:58:31;;;;;;;;;;;4.90;99.90;;;;;;5094803;28;19945;-61
2021/12/24 16:00:57;;;;;;;;;;;4.80;99.90;;;;;;5093695;27;20463;-62
2021/12/24 16:03:22;;;;;;;;;;;4.70;99.90;;;;;;5119661;27;20042;-64
2021/12/24 16:05:49;;;;;;;;;;;4.50;99.90;;;;;;5108766;27;20026;-62
2021/12/24 16:08:18;;;;;;;;;;;4.40;99.90;;;;;;5127532;27;19923;-61
2021/12/24 16:10:43;;;;;;;;;;;4.30;99.90;;;;;;5108954;27;19934;-64
2021/12/24 16:13:09;;;;;;;;;;;4.30;99.90;;;;;;5111079;27;19919;-62
2021/12/24 16:15:40;;;;;;;;;;;4.20;99.90;;;;;;5127997;27;19972;-62
2021/12/24 16:18:06;;;;;;;;;;;4.20;99.90;;;;;;5129127;27;19919;-62
2021/12/24 16:20:31;;;;;;;;;;;4.20;99.90;;;;;;5127976;27;20069;-63
2021/12/24 16:22:57;;;;;;;;;;;4.10;99.90;;;;;;5109084;27;19923;-61
2021/12/24 16:25:23;;;;;;;;;;;4.10;99.90;;;;;;5123216;27;19978;-63